Time,TemperatureF,DewpointF,PressureIn,WindDirection,WindDirectionDegrees,WindSpeedMPH,WindSpeedGustMPH,Humidity,HourlyPrecipIn,Conditions,Clouds,dailyrainin,SoftwareType,DateUTC
2013-07-02 00:11:00,60.0,50.0,-100.00,South,174,6.0,13.0,70,0.00,,,0.00,,2013-07-02 06:11:00,
2013-07-02 00:23:00,60.0,50.0,-100.00,South,174,6.0,13.0,70,0.00,,,0.00,,2013-07-02 06:23:00,
2013-07-02 00:34:00,60.0,50.0,-100.00,South,174,6.0,13.0,70,0.00,,,0.00,,2013-07-02 06:34:00,
2013-07-02 00:40:00,59.0,48.0,-100.00,SSE,168,4.0,11.0,67,0.00,,,0.00,,2013-07-02 06:40:00,
2013-07-02 01:11:00,59.0,48.0,-100.00,SSE,168,4.0,11.0,67,0.00,,,0.00,,2013-07-02 07:11:00,
2013-07-02 01:22:00,59.0,48.0,-100.00,SSE,168,4.0,11.0,67,0.00,,,0.00,,2013-07-02 07:22:00,
2013-07-02 01:34:00,59.0,48.0,-100.00,SSE,168,4.0,11.0,67,0.00,,,0.00,,2013-07-02 07:34:00,
2013-07-02 01:40:00,58.0,48.0,-100.00,SW,219,5.0,10.0,70,0.00,,,0.00,,2013-07-02 07:40:00,
2013-07-02 02:12:00,58.0,48.0,-100.00,SW,219,5.0,10.0,70,0.00,,,0.00,,2013-07-02 08:12:00,
2013-07-02 02:22:00,58.0,48.0,-100.00,SW,219,5.0,10.0,70,0.00,,,0.00,,2013-07-02 08:22:00,
2013-07-02 02:33:00,58.0,48.0,-100.00,SW,219,5.0,10.0,70,0.00,,,0.00,,2013-07-02 08:33:00,
2013-07-02 02:40:00,58.0,48.0,-100.00,SSW,201,4.0,9.0,70,0.00,,,0.00,,2013-07-02 08:40:00,
2013-07-02 03:11:00,58.0,48.0,-100.00,SSW,201,4.0,9.0,70,0.00,,,0.00,,2013-07-02 09:11:00,
2013-07-02 03:23:00,58.0,48.0,-100.00,SSW,201,4.0,9.0,70,0.00,,,0.00,,2013-07-02 09:23:00,
2013-07-02 03:33:00,58.0,48.0,-100.00,SSW,201,4.0,9.0,70,0.00,,,0.00,,2013-07-02 09:33:00,
2013-07-02 03:40:00,58.0,45.0,-100.00,SSW,203,6.0,13.0,62,0.00,,,0.00,,2013-07-02 09:40:00,
2013-07-02 04:01:00,58.0,45.0,-100.00,SSW,203,6.0,13.0,62,0.00,,,0.00,,2013-07-02 10:01:00,
2013-07-02 04:11:00,58.0,45.0,-100.00,SSW,203,6.0,13.0,62,0.00,,,0.00,,2013-07-02 10:11:00,
2013-07-02 04:22:00,58.0,45.0,-100.00,SSW,203,6.0,13.0,62,0.00,,,0.00,,2013-07-02 10:22:00,
2013-07-02 04:33:00,58.0,45.0,-100.00,SSW,203,6.0,13.0,62,0.00,,,0.00,,2013-07-02 10:33:00,
2013-07-02 04:40:00,57.0,43.0,-100.00,SSW,193,3.0,12.0,60,0.00,,,0.00,,2013-07-02 10:40:00,
2013-07-02 05:11:00,57.0,43.0,-100.00,SSW,193,3.0,12.0,60,0.00,,,0.00,,2013-07-02 11:11:00,
2013-07-02 05:22:00,57.0,43.0,-100.00,SSW,193,3.0,12.0,60,0.00,,,0.00,,2013-07-02 11:22:00,
2013-07-02 05:33:00,57.0,43.0,-100.00,SSW,193,3.0,12.0,60,0.00,,,0.00,,2013-07-02 11:33:00,
2013-07-02 05:40:00,57.0,44.0,-100.00,South,180,4.0,8.0,62,0.00,,,0.00,,2013-07-02 11:40:00,
2013-07-02 06:11:00,57.0,44.0,-100.00,South,180,4.0,8.0,62,0.00,,,0.00,,2013-07-02 12:11:00,
2013-07-02 06:23:00,57.0,44.0,-100.00,South,180,4.0,8.0,62,0.00,,,0.00,,2013-07-02 12:23:00,
2013-07-02 06:33:00,57.0,44.0,-100.00,South,180,4.0,8.0,62,0.00,,,0.00,,2013-07-02 12:33:00,
2013-07-02 06:40:00,56.0,43.0,-100.00,WNW,282,0.0,8.0,62,0.00,,,0.00,,2013-07-02 12:40:00,
2013-07-02 07:11:00,56.0,43.0,-100.00,WNW,282,0.0,8.0,62,0.00,,,0.00,,2013-07-02 13:11:00,
2013-07-02 07:22:00,56.0,43.0,-100.00,WNW,282,0.0,8.0,62,0.00,,,0.00,,2013-07-02 13:22:00,
2013-07-02 07:34:00,56.0,43.0,-100.00,WNW,282,0.0,8.0,62,0.00,,,0.00,,2013-07-02 13:34:00,
2013-07-02 07:40:00,58.0,44.0,-100.00,ESE,103,1.0,3.0,60,0.00,,,0.00,,2013-07-02 13:40:00,
2013-07-02 08:11:00,58.0,44.0,-100.00,ESE,103,1.0,3.0,60,0.00,,,0.00,,2013-07-02 14:11:00,
2013-07-02 08:22:00,58.0,44.0,-100.00,ESE,103,1.0,3.0,60,0.00,,,0.00,,2013-07-02 14:22:00,
2013-07-02 08:33:00,58.0,44.0,-100.00,ESE,103,1.0,3.0,60,0.00,,,0.00,,2013-07-02 14:33:00,
2013-07-02 08:40:00,64.0,47.0,-100.00,SE,143,4.0,8.0,55,0.00,,,0.00,,2013-07-02 14:40:00,
2013-07-02 09:11:00,64.0,47.0,-100.00,SE,143,4.0,8.0,55,0.00,,,0.00,,2013-07-02 15:11:00,
2013-07-02 09:22:00,64.0,47.0,-100.00,SE,143,4.0,8.0,55,0.00,,,0.00,,2013-07-02 15:22:00,
2013-07-02 09:33:00,64.0,47.0,-100.00,SE,143,4.0,8.0,55,0.00,,,0.00,,2013-07-02 15:33:00,
2013-07-02 09:40:00,68.0,46.0,-100.00,SSE,147,4.0,9.0,46,0.00,,,0.00,,2013-07-02 15:40:00,
2013-07-02 10:12:00,68.0,46.0,-100.00,SSE,147,4.0,9.0,46,0.00,,,0.00,,2013-07-02 16:12:00,
2013-07-02 10:22:00,68.0,46.0,-100.00,SSE,147,4.0,9.0,46,0.00,,,0.00,,2013-07-02 16:22:00,
2013-07-02 10:33:00,68.0,46.0,-100.00,SSE,147,4.0,9.0,46,0.00,,,0.00,,2013-07-02 16:33:00,
2013-07-02 10:40:00,73.0,47.0,-100.00,SE,141,4.0,10.0,40,0.00,,,0.00,,2013-07-02 16:40:00,
2013-07-02 11:02:00,73.0,47.0,-100.00,SE,141,4.0,10.0,40,0.00,,,0.00,,2013-07-02 17:02:00,
2013-07-02 11:11:00,73.0,47.0,-100.00,SE,141,4.0,10.0,40,0.00,,,0.00,,2013-07-02 17:11:00,
2013-07-02 11:22:00,73.0,47.0,-100.00,SE,141,4.0,10.0,40,0.00,,,0.00,,2013-07-02 17:22:00,
2013-07-02 11:33:00,73.0,47.0,-100.00,SE,141,4.0,10.0,40,0.00,,,0.00,,2013-07-02 17:33:00,
2013-07-02 11:40:00,76.0,46.0,-100.00,SE,139,5.0,12.0,35,0.00,,,0.00,,2013-07-02 17:40:00,
2013-07-02 12:02:00,76.0,46.0,-100.00,SE,139,5.0,12.0,35,0.00,,,0.00,,2013-07-02 18:02:00,
2013-07-02 12:12:00,76.0,46.0,-100.00,SE,139,5.0,12.0,35,0.00,,,0.00,,2013-07-02 18:12:00,
2013-07-02 12:23:00,76.0,46.0,-100.00,SE,139,5.0,12.0,35,0.00,,,0.00,,2013-07-02 18:23:00,
2013-07-02 12:34:00,76.0,46.0,-100.00,SE,139,5.0,12.0,35,0.00,,,0.00,,2013-07-02 18:34:00,
2013-07-02 12:40:00,77.0,45.0,-100.00,SSE,150,5.0,16.0,32,0.00,,,0.00,,2013-07-02 18:40:00,
2013-07-02 13:01:00,77.0,45.0,-100.00,SSE,150,5.0,16.0,32,0.00,,,0.00,,2013-07-02 19:01:00,
2013-07-02 13:12:00,77.0,45.0,-100.00,SSE,150,5.0,16.0,32,0.00,,,0.00,,2013-07-02 19:12:00,
2013-07-02 13:22:00,77.0,45.0,-100.00,SSE,150,5.0,16.0,32,0.00,,,0.00,,2013-07-02 19:22:00,
2013-07-02 13:34:00,77.0,45.0,-100.00,SSE,150,5.0,16.0,32,0.00,,,0.00,,2013-07-02 19:34:00,
2013-07-02 13:40:00,72.0,42.0,-100.00,WSW,239,5.0,14.0,34,0.00,,,0.00,,2013-07-02 19:40:00,
2013-07-02 14:11:00,72.0,42.0,-100.00,WSW,239,5.0,14.0,34,0.00,,,0.00,,2013-07-02 20:11:00,
2013-07-02 14:22:00,72.0,42.0,-100.00,WSW,239,5.0,14.0,34,0.00,,,0.00,,2013-07-02 20:22:00,
2013-07-02 14:33:00,72.0,42.0,-100.00,WSW,239,5.0,14.0,34,0.00,,,0.00,,2013-07-02 20:33:00,
2013-07-02 15:40:00,73.0,49.0,-100.00,SSW,209,3.0,7.0,42,0.00,,,0.00,,2013-07-02 21:40:00,
2013-07-02 16:11:00,73.0,49.0,-100.00,SSW,209,3.0,7.0,42,0.00,,,0.00,,2013-07-02 22:11:00,
2013-07-02 16:22:00,73.0,49.0,-100.00,SSW,209,3.0,7.0,42,0.00,,,0.00,,2013-07-02 22:22:00,
2013-07-02 16:34:00,73.0,49.0,-100.00,SSW,209,3.0,7.0,42,0.00,,,0.00,,2013-07-02 22:34:00,
2013-07-02 16:40:00,73.0,47.0,-100.00,WSW,250,4.0,9.0,39,0.00,,,0.00,,2013-07-02 22:40:00,
2013-07-02 17:11:00,73.0,47.0,-100.00,WSW,250,4.0,9.0,39,0.00,,,0.00,,2013-07-02 23:11:00,
2013-07-02 17:22:00,73.0,47.0,-100.00,WSW,250,4.0,9.0,39,0.00,,,0.00,,2013-07-02 23:22:00,
2013-07-02 17:33:00,73.0,47.0,-100.00,WSW,250,4.0,9.0,39,0.00,,,0.00,,2013-07-02 23:33:00,
2013-07-02 17:40:00,72.0,48.0,-100.00,WSW,252,4.0,7.0,42,0.00,,,0.00,,2013-07-02 23:40:00,
2013-07-02 18:01:00,72.0,48.0,-100.00,WSW,252,4.0,7.0,42,0.00,,,0.00,,2013-07-03 00:01:00,
2013-07-02 18:11:00,72.0,48.0,-100.00,WSW,252,4.0,7.0,42,0.00,,,0.00,,2013-07-03 00:11:00,
2013-07-02 18:22:00,72.0,48.0,-100.00,WSW,252,4.0,7.0,42,0.00,,,0.00,,2013-07-03 00:22:00,
2013-07-02 18:33:00,72.0,48.0,-100.00,WSW,252,4.0,7.0,42,0.00,,,0.00,,2013-07-03 00:33:00,
2013-07-02 18:40:00,73.0,47.0,-100.00,SE,131,4.0,12.0,40,0.00,,,0.00,,2013-07-03 00:40:00,
2013-07-02 19:11:00,73.0,47.0,-100.00,SE,131,4.0,12.0,40,0.00,,,0.00,,2013-07-03 01:11:00,
2013-07-02 19:22:00,73.0,47.0,-100.00,SE,131,4.0,12.0,40,0.00,,,0.00,,2013-07-03 01:22:00,
2013-07-02 19:33:00,73.0,47.0,-100.00,SE,131,4.0,12.0,40,0.00,,,0.00,,2013-07-03 01:33:00,
2013-07-02 20:14:00,67.0,47.0,-100.00,SSW,199,6.0,16.0,49,0.00,,,0.00,,2013-07-03 02:14:00,
2013-07-02 20:26:00,67.0,47.0,-100.00,SSW,199,6.0,16.0,49,0.00,,,0.00,,2013-07-03 02:26:00,
2013-07-02 20:38:00,67.0,47.0,-100.00,SSW,199,6.0,16.0,49,0.00,,,0.00,,2013-07-03 02:38:00,
2013-07-02 21:13:00,63.0,48.0,-100.00,SSW,213,10.0,19.0,57,0.00,,,0.00,,2013-07-03 03:13:00,
2013-07-02 21:25:00,63.0,48.0,-100.00,SSW,213,10.0,19.0,57,0.00,,,0.00,,2013-07-03 03:25:00,
2013-07-02 21:35:00,63.0,48.0,-100.00,SSW,213,10.0,19.0,57,0.00,,,0.00,,2013-07-03 03:35:00,
2013-07-02 21:40:00,60.0,51.0,-100.00,SSW,213,9.0,19.0,72,0.00,,,0.00,,2013-07-03 03:40:00,
2013-07-02 22:11:00,60.0,51.0,-100.00,SSW,213,9.0,19.0,72,0.00,,,0.00,,2013-07-03 04:11:00,
2013-07-02 22:22:00,60.0,51.0,-100.00,SSW,213,9.0,19.0,72,0.00,,,0.00,,2013-07-03 04:22:00,
2013-07-02 22:33:00,60.0,51.0,-100.00,SSW,213,9.0,19.0,72,0.00,,,0.00,,2013-07-03 04:33:00,
2013-07-02 23:01:00,61.0,51.0,-100.00,SSW,204,7.0,16.0,70,0.00,,,0.00,,2013-07-03 05:01:00,
2013-07-02 23:11:00,61.0,51.0,-100.00,SSW,204,7.0,16.0,70,0.00,,,0.00,,2013-07-03 05:11:00,
2013-07-02 23:23:00,61.0,51.0,-100.00,SSW,204,7.0,16.0,70,0.00,,,0.00,,2013-07-03 05:23:00,
2013-07-02 23:36:00,61.0,51.0,-100.00,SSW,204,7.0,16.0,70,0.00,,,0.00,,2013-07-03 05:36:00,
2013-07-02 23:40:00,60.0,52.0,-100.00,SSW,212,6.0,16.0,74,0.00,,,0.00,,2013-07-03 05:40:00,